Time;durP1;ratioP1;P1;durP2;ratioP2;P2;SDS_P1;SDS_P2;PMS_P1;PMS_P2;Temp;Humidity;BMP_temperature;BMP_pressure;BME280_temperature;BME280_humidity;BME280_pressure;Samples;Min_cycle;Max_cycle;Signal;HPM_P1;HPM_P2
2022/03/29 00:00:53;;;;;;;37.90;16.60;;;;;;;9.25;78.34;101391.22;4987630;28;20104;-75
2022/03/29 00:03:19;;;;;;;44.58;18.88;;;;;;;9.21;78.54;101395.03;4987532;28;21572;-76
2022/03/29 00:05:44;;;;;;;38.40;16.48;;;;;;;9.16;78.46;101385.91;4996591;28;20037;-75
2022/03/29 00:08:10;;;;;;;40.78;17.55;;;;;;;9.13;78.77;101388.75;4985454;28;20037;-75
2022/03/29 00:10:35;;;;;;;41.90;18.55;;;;;;;9.11;78.79;101388.06;4982008;28;20034;-76
2022/03/29 00:13:01;;;;;;;40.65;17.27;;;;;;;9.08;78.98;101385.75;4985217;28;20116;-75
2022/03/29 00:15:28;;;;;;;43.72;16.90;;;;;;;9.06;78.85;101385.06;4999794;28;20083;-75
2022/03/29 00:17:54;;;;;;;43.45;18.25;;;;;;;9.04;78.81;101375.78;4987277;28;20164;-76
2022/03/29 00:20:20;;;;;;;35.80;16.45;;;;;;;9.02;79.00;101375.09;4987091;28;20120;-76
2022/03/29 00:22:48;;;;;;;40.13;17.23;;;;;;;8.99;78.83;101375.38;4974545;28;20379;-76
2022/03/29 00:25:15;;;;;;;45.30;17.20;;;;;;;8.97;79.08;101370.34;4985277;28;20147;-75
2022/03/29 00:27:41;;;;;;;37.28;15.40;;;;;;;8.94;78.99;101368.00;4987039;28;20072;-76
2022/03/29 00:30:09;;;;;;;37.78;15.65;;;;;;;8.93;79.22;101364.59;4970855;28;20449;-76
2022/03/29 00:32:35;;;;;;;40.05;15.85;;;;;;;8.92;79.58;101359.56;5004757;28;20564;-76
2022/03/29 00:35:01;;;;;;;32.15;15.45;;;;;;;8.88;79.59;101360.78;4983929;28;20037;-76
2022/03/29 00:37:27;;;;;;;36.80;15.80;;;;;;;8.85;79.45;101358.44;4997669;28;20137;-75
2022/03/29 00:39:52;;;;;;;39.25;16.55;;;;;;;8.82;79.68;101359.53;4999513;28;20140;-76
2022/03/29 00:42:18;;;;;;;43.53;17.45;;;;;;;8.80;79.82;101358.84;4988452;28;20048;-75
2022/03/29 00:44:43;;;;;;;37.28;16.08;;;;;;;8.76;80.04;101350.53;4971417;28;20041;-76
2022/03/29 00:47:09;;;;;;;44.05;16.90;;;;;;;8.75;80.16;101351.47;4986600;28;20062;-76
2022/03/29 00:49:34;;;;;;;44.38;15.73;;;;;;;8.74;80.18;101349.84;5000130;28;20092;-76
2022/03/29 00:52:03;;;;;;;43.63;17.10;;;;;;;8.75;80.54;101354.03;5000621;28;20057;-75
2022/03/29 00:54:33;;;;;;;47.10;17.75;;;;;;;8.75;80.55;101345.47;4989112;28;20117;-76
2022/03/29 00:57:03;;;;;;;36.17;16.00;;;;;;;8.74;80.62;101344.66;5003733;28;20061;-75
2022/03/29 00:59:30;;;;;;;41.28;16.65;;;;;;;8.73;80.58;101340.44;4999768;28;20265;-76
2022/03/29 01:01:57;;;;;;;36.72;16.60;;;;;;;8.72;80.46;101341.41;4987144;28;20064;-75
2022/03/29 01:04:23;;;;;;;35.67;16.70;;;;;;;8.70;80.94;101332.13;4971450;28;20022;-76
2022/03/29 01:06:50;;;;;;;41.38;17.25;;;;;;;8.68;80.73;101334.84;4986790;28;20044;-75
2022/03/29 01:09:16;;;;;;;39.45;16.70;;;;;;;8.66;80.69;101330.75;4990572;28;20557;-75
2022/03/29 01:11:42;;;;;;;45.70;17.30;;;;;;;8.64;80.94;101323.13;4983991;28;20072;-76
2022/03/29 01:14:08;;;;;;;41.90;17.20;;;;;;;8.62;80.93;101325.00;5002651;28;20050;-75
2022/03/29 01:19:22;;;;;;;37.00;16.52;;;;;;;8.58;81.11;101315.88;4999958;28;20271;-75
2022/03/29 01:21:58;;;;;;;42.65;17.27;;;;;;;8.56;81.08;101317.78;4985692;28;20189;-76
2022/03/29 01:24:28;;;;;;;40.03;16.27;;;;;;;8.57;81.01;101311.69;4982838;28;20026;-76
2022/03/29 01:26:57;;;;;;;37.97;16.15;;;;;;;8.54;80.96;101314.50;4967553;28;20778;-75
2022/03/29 01:29:23;;;;;;;43.70;16.52;;;;;;;8.51;81.04;101313.03;4982077;28;20095;-76
2022/03/29 01:31:50;;;;;;;43.28;16.27;;;;;;;8.49;81.03;101311.50;5002532;28;20486;-76
2022/03/29 01:34:19;;;;;;;43.75;17.95;;;;;;;8.46;81.18;101314.34;5002917;28;20111;-76
2022/03/29 01:36:45;;;;;;;42.22;17.10;;;;;;;8.41;81.18;101311.31;4984915;28;20173;-76
2022/03/29 01:39:11;;;;;;;38.22;16.27;;;;;;;8.38;81.19;101312.34;4966156;28;20409;-75
2022/03/29 01:41:38;;;;;;;45.13;16.48;;;;;;;8.34;81.51;101309.25;4982266;28;20176;-76
2022/03/29 01:44:08;;;;;;;39.97;16.98;;;;;;;8.29;81.49;101308.00;5002663;28;20113;-76
2022/03/29 01:46:34;;;;;;;35.92;16.35;;;;;;;8.25;81.74;101309.16;4968267;28;20084;-76
2022/03/29 01:49:03;;;;;;;43.00;16.23;;;;;;;8.21;81.91;101300.03;4970121;28;20030;-75
2022/03/29 01:51:29;;;;;;;40.08;18.20;;;;;;;8.17;82.05;101300.31;4999401;28;20606;-76
2022/03/29 01:53:57;;;;;;;47.00;16.52;;;;;;;8.15;82.02;101296.22;4986510;28;20539;-75
2022/03/29 01:56:29;;;;;;;41.20;16.85;;;;;;;8.14;82.15;101295.41;5002053;28;20406;-76
2022/03/29 01:58:56;;;;;;;36.28;16.58;;;;;;;8.11;82.32;101285.31;5001432;28;20169;-75
2022/03/29 02:01:22;;;;;;;39.75;16.50;;;;;;;8.10;82.02;101283.69;4967527;28;20030;-75
2022/03/29 02:03:47;;;;;;;38.90;18.00;;;;;;;8.08;82.04;101279.56;4985066;28;20325;-76
2022/03/29 02:06:13;;;;;;;46.38;17.65;;;;;;;8.06;82.17;101278.88;4999339;28;20041;-76
2022/03/29 02:08:39;;;;;;;36.30;16.98;;;;;;;8.01;82.29;101276.69;5002740;28;20666;-75
2022/03/29 02:11:04;;;;;;;38.83;17.42;;;;;;;7.98;82.32;101264.84;5005596;28;20025;-75
2022/03/29 02:13:30;;;;;;;38.60;16.65;;;;;;;7.97;82.45;101273.53;4985605;28;20041;-75
2022/03/29 02:15:55;;;;;;;39.92;18.48;;;;;;;7.93;82.43;101272.16;4986983;28;20021;-76
2022/03/29 02:18:20;;;;;;;47.33;17.50;;;;;;;7.91;82.47;101263.72;4993021;28;20045;-75
2022/03/29 02:20:47;;;;;;;41.38;17.45;;;;;;;7.89;82.67;101263.06;4991640;28;20052;-75
2022/03/29 02:23:15;;;;;;;43.42;16.80;;;;;;;7.87;82.59;101254.59;5008071;28;20038;-75
2022/03/29 02:25:42;;;;;;;37.20;18.13;;;;;;;7.85;82.66;101259.06;5008052;28;20026;-75
2022/03/29 02:28:10;;;;;;;41.35;17.38;;;;;;;7.83;82.50;101249.81;4992200;28;20037;-75
2022/03/29 02:30:36;;;;;;;39.13;16.75;;;;;;;7.79;82.97;101255.22;4990269;28;20423;-76
2022/03/29 02:33:05;;;;;;;43.40;20.17;;;;;;;7.75;83.00;101259.00;4974329;28;20037;-75
2022/03/29 02:35:31;;;;;;;47.50;19.17;;;;;;;7.73;83.31;101252.34;4988195;28;20034;-76
2022/03/29 02:37:57;;;;;;;38.13;17.30;;;;;;;7.70;83.33;101255.97;4986909;28;20068;-75
2022/03/29 02:40:23;;;;;;;41.67;17.20;;;;;;;7.64;83.88;101246.16;4988824;28;20037;-75
2022/03/29 02:42:55;;;;;;;42.42;17.80;;;;;;;7.60;83.67;101243.00;5003742;28;20045;-76
2022/03/29 02:45:26;;;;;;;44.78;19.60;;;;;;;7.60;84.17;101239.63;5004448;28;20045;-76
2022/03/29 02:47:54;;;;;;;49.78;18.83;;;;;;;7.60;84.20;101237.84;4987385;28;20133;-76
2022/03/29 02:50:21;;;;;;;40.15;18.15;;;;;;;7.61;84.18;101241.28;5005851;28;20029;-75
2022/03/29 02:52:52;;;;;;;45.80;18.45;;;;;;;7.59;84.54;101238.81;5000422;28;20041;-75
2022/03/29 02:55:19;;;;;;;40.83;18.67;;;;;;;7.59;84.39;101235.38;4986743;28;20319;-75
2022/03/29 02:57:46;;;;;;;41.42;19.60;;;;;;;7.59;84.51;101231.06;5000102;28;20053;-75
2022/03/29 03:00:16;;;;;;;43.58;18.27;;;;;;;7.58;84.54;101226.84;4987914;28;20295;-76
2022/03/29 03:02:46;;;;;;;42.72;19.90;;;;;;;7.57;84.63;101227.78;4991528;28;20117;-75
2022/03/29 03:05:12;;;;;;;41.15;19.17;;;;;;;7.56;84.56;101218.41;4990384;28;20121;-75
2022/03/29 03:07:39;;;;;;;43.65;18.98;;;;;;;7.55;84.44;101216.78;4988997;28;20048;-76
2022/03/29 03:10:09;;;;;;;41.42;18.15;;;;;;;7.55;84.39;101226.25;4969704;28;20098;-75
2022/03/29 03:12:35;;;;;;;40.47;18.50;;;;;;;7.54;84.73;101215.13;5001582;28;20037;-76
2022/03/29 03:15:01;;;;;;;42.40;17.75;;;;;;;7.53;84.79;101216.06;5000984;28;20030;-74
2022/03/29 03:17:26;;;;;;;40.75;20.05;;;;;;;7.51;84.89;101210.22;5002039;28;20768;-76
2022/03/29 03:19:52;;;;;;;42.13;19.60;;;;;;;7.50;84.73;101207.78;4972964;28;20034;-76
2022/03/29 03:22:17;;;;;;;41.47;19.10;;;;;;;7.50;84.76;101206.00;5000483;28;20034;-76
2022/03/29 03:24:43;;;;;;;40.92;19.63;;;;;;;7.48;84.68;101201.91;4968533;28;20426;-75
2022/03/29 03:27:08;;;;;;;44.05;21.38;;;;;;;7.46;84.79;101196.88;4996845;28;20037;-76
2022/03/29 03:29:34;;;;;;;45.15;19.73;;;;;;;7.44;85.04;101193.63;4986181;28;20034;-75
2022/03/29 03:32:00;;;;;;;44.72;18.23;;;;;;;7.40;85.04;101193.03;5002163;28;20453;-75
2022/03/29 03:34:25;;;;;;;44.47;19.60;;;;;;;7.40;85.18;101187.88;5003064;28;20056;-75
2022/03/29 03:36:51;;;;;;;38.58;18.45;;;;;;;7.40;85.36;101187.03;5000180;28;20029;-75
2022/03/29 03:39:17;;;;;;;41.08;18.15;;;;;;;7.40;85.50;101192.19;4987763;28;21383;-75
2022/03/29 03:41:43;;;;;;;42.05;20.35;;;;;;;7.38;85.40;101189.78;4986709;28;20665;-75
2022/03/29 03:44:11;;;;;;;44.17;21.05;;;;;;;7.36;85.73;101185.66;5004070;28;20041;-75
2022/03/29 03:46:37;;;;;;;44.45;19.27;;;;;;;7.33;85.69;101189.31;5001578;28;20038;-75
2022/03/29 03:49:02;;;;;;;43.50;20.33;;;;;;;7.30;85.81;101184.41;4988832;28;20498;-75
2022/03/29 03:51:28;;;;;;;44.40;20.95;;;;;;;7.30;86.08;101178.44;4974675;28;20041;-75
2022/03/29 03:53:53;;;;;;;48.72;20.52;;;;;;;7.31;85.85;101177.47;4990600;28;20168;-75
2022/03/29 03:56:19;;;;;;;52.15;21.90;;;;;;;7.29;85.89;101175.03;4988954;28;20043;-76
2022/03/29 03:58:50;;;;;;;42.72;21.13;;;;;;;7.28;86.09;101177.75;4990985;28;20030;-75
2022/03/29 04:01:16;;;;;;;50.60;21.92;;;;;;;7.27;85.89;101165.78;4983328;28;20555;-75
2022/03/29 04:03:41;;;;;;;47.85;21.77;;;;;;;7.28;86.27;101164.84;4971853;28;20037;-76
2022/03/29 04:06:07;;;;;;;51.65;22.13;;;;;;;7.27;85.99;101158.88;4982694;28;20577;-75
2022/03/29 04:08:32;;;;;;;42.30;21.38;;;;;;;7.28;85.89;101155.34;4969654;28;20030;-75
2022/03/29 04:10:58;;;;;;;44.00;21.90;;;;;;;7.31;85.97;101151.69;4999463;28;20041;-75
2022/03/29 04:13:24;;;;;;;51.03;21.98;;;;;;;7.30;85.60;101150.06;5003830;28;20033;-75
2022/03/29 04:15:49;;;;;;;48.70;22.17;;;;;;;7.30;85.89;101143.13;4999607;28;20029;-75
2022/03/29 04:18:15;;;;;;;49.50;22.98;;;;;;;7.26;85.49;101144.34;4968864;28;20046;-75
2022/03/29 04:20:41;;;;;;;47.58;22.40;;;;;;;7.23;86.00;101142.00;5003253;28;20026;-75
2022/03/29 04:23:10;;;;;;;45.08;22.70;;;;;;;7.21;86.06;101130.97;4988028;28;20395;-75
2022/03/29 04:25:35;;;;;;;47.20;22.15;;;;;;;7.19;86.05;101138.84;4966875;28;20038;-75
2022/03/29 04:28:01;;;;;;;50.17;22.10;;;;;;;7.21;86.06;101134.41;4981975;28;20395;-75
2022/03/29 04:30:27;;;;;;;47.95;21.50;;;;;;;7.21;86.09;101131.81;5003838;28;20241;-75
2022/03/29 04:32:53;;;;;;;45.30;21.77;;;;;;;7.20;86.17;101132.75;5001646;28;20732;-75
2022/03/29 04:35:19;;;;;;;45.97;20.60;;;;;;;7.22;86.36;101133.44;5000464;28;20033;-75
2022/03/29 04:37:44;;;;;;;49.33;21.83;;;;;;;7.24;86.21;101128.16;4986518;28;20060;-75
2022/03/29 04:40:11;;;;;;;44.55;21.65;;;;;;;7.25;86.01;101132.38;4969688;28;20030;-75
2022/03/29 04:42:47;;;;;;;47.15;21.05;;;;;;;7.25;85.71;101128.97;5000675;28;20064;-76
2022/03/29 04:45:14;;;;;;;49.15;21.30;;;;;;;7.23;85.90;101126.50;4986229;28;20045;-76
2022/03/29 04:47:40;;;;;;;44.33;21.88;;;;;;;7.24;85.91;101129.94;4974615;28;20029;-76
2022/03/29 04:50:07;;;;;;;49.80;23.20;;;;;;;7.24;85.94;101124.78;5006851;28;20627;-76
2022/03/29 04:52:32;;;;;;;48.63;22.02;;;;;;;7.22;85.91;101124.91;5000900;28;20092;-77
2022/03/29 04:54:58;;;;;;;50.53;21.58;;;;;;;7.18;85.96;101120.94;4987498;28;20118;-75
2022/03/29 04:57:23;;;;;;;46.55;21.83;;;;;;;7.13;86.08;101121.28;4999865;28;20253;-75
2022/03/29 04:59:49;;;;;;;47.78;22.40;;;;;;;7.14;86.35;101127.25;4980824;28;20104;-75
2022/03/29 05:02:14;;;;;;;49.05;23.38;;;;;;;7.11;86.57;101120.59;4986721;28;20041;-75
2022/03/29 05:04:40;;;;;;;42.75;20.90;;;;;;;7.10;86.48;101113.00;5000808;28;20033;-75
2022/03/29 05:07:05;;;;;;;46.10;20.58;;;;;;;7.09;86.25;101117.34;5000639;28;20041;-75
2022/03/29 05:09:31;;;;;;;48.28;21.77;;;;;;;7.07;86.04;101114.06;5001680;28;20490;-75
2022/03/29 05:11:59;;;;;;;45.70;22.83;;;;;;;7.07;86.09;101110.69;4986519;28;20056;-75
2022/03/29 05:14:25;;;;;;;51.58;22.27;;;;;;;7.03;85.95;101104.94;5001090;28;20054;-76
2022/03/29 05:16:50;;;;;;;43.63;21.48;;;;;;;7.00;86.14;101106.00;4990930;28;20040;-75
2022/03/29 05:19:16;;;;;;;41.92;22.35;;;;;;;6.99;86.16;101104.38;4966829;28;20033;-75
2022/03/29 05:21:42;;;;;;;51.75;24.77;;;;;;;7.00;86.12;101107.78;5002319;28;20427;-75
2022/03/29 05:24:08;;;;;;;53.42;25.08;;;;;;;6.95;86.60;101097.84;4985257;28;20109;-75
2022/03/29 05:26:34;;;;;;;55.67;24.90;;;;;;;6.93;86.97;101098.91;4966590;28;20765;-75
2022/03/29 05:28:59;;;;;;;52.05;24.35;;;;;;;6.92;87.21;101095.50;4984163;28;20042;-75
2022/03/29 05:31:25;;;;;;;53.80;25.40;;;;;;;6.93;87.18;101096.31;5003219;28;20030;-78
2022/03/29 05:33:51;;;;;;;51.72;25.13;;;;;;;6.89;87.77;101098.31;4985832;28;20481;-76
2022/03/29 05:36:16;;;;;;;50.90;25.38;;;;;;;6.89;87.94;101094.94;4965426;28;20038;-75
2022/03/29 05:38:48;;;;;;;52.90;26.10;;;;;;;6.90;88.33;101101.75;4998808;28;20768;-76
2022/03/29 05:41:15;;;;;;;56.35;26.30;;;;;;;6.90;88.57;101096.59;4998687;28;20034;-75
2022/03/29 05:43:41;;;;;;;61.95;27.67;;;;;;;6.90;88.51;101094.00;4966439;28;20030;-75
2022/03/29 05:48:56;;;;;;;62.25;28.52;;;;;;;6.86;88.95;101088.28;4999151;28;20033;-76
2022/03/29 05:51:24;;;;;;;60.20;27.95;;;;;;;6.83;89.38;101091.91;4986688;28;20092;-75
2022/03/29 05:53:52;;;;;;;61.38;28.40;;;;;;;6.83;89.51;101096.25;4983437;28;20037;-75
2022/03/29 05:56:18;;;;;;;61.53;29.65;;;;;;;6.86;89.44;101096.00;4983182;28;20026;-75
2022/03/29 05:58:43;;;;;;;58.03;28.17;;;;;;;6.84;89.56;101090.16;4999984;28;20037;-75
2022/03/29 06:01:09;;;;;;;59.38;27.50;;;;;;;6.84;89.40;101095.31;4987158;28;20034;-75
2022/03/29 06:03:34;;;;;;;62.92;27.88;;;;;;;6.87;89.71;101099.41;4999360;28;20507;-75
2022/03/29 06:06:00;;;;;;;62.60;27.52;;;;;;;6.88;90.00;101099.28;4985567;28;20479;-75
2022/03/29 06:08:25;;;;;;;57.67;27.98;;;;;;;6.90;89.90;101099.16;4983177;28;20037;-75
2022/03/29 06:10:51;;;;;;;63.70;29.20;;;;;;;6.93;90.16;101107.47;4998416;28;20046;-75
2022/03/29 06:13:16;;;;;;;59.38;28.58;;;;;;;6.98;89.63;101104.50;5005682;28;20041;-76
2022/03/29 06:15:41;;;;;;;62.25;30.25;;;;;;;7.02;89.89;101109.28;5000557;28;20040;-75
2022/03/29 06:18:07;;;;;;;66.30;30.75;;;;;;;7.04;89.55;101110.91;4966122;28;20602;-76
2022/03/29 06:20:33;;;;;;;71.72;31.63;;;;;;;7.04;89.44;101106.56;4987735;28;20037;-75
2022/03/29 06:22:58;;;;;;;66.05;30.17;;;;;;;7.08;89.23;101118.28;4986657;28;20026;-75
2022/03/29 06:25:24;;;;;;;63.05;30.25;;;;;;;7.16;89.33;101120.25;4971703;28;20425;-75
2022/03/29 06:27:49;;;;;;;67.25;31.50;;;;;;;7.20;89.36;101113.88;4985662;28;20042;-76
2022/03/29 06:30:15;;;;;;;56.72;29.33;;;;;;;7.24;89.51;101120.44;4985531;28;20038;-75
2022/03/29 06:32:52;;;;;;;60.97;30.83;;;;;;;7.33;88.81;101129.19;5001504;28;20030;-75
2022/03/29 06:35:23;;;;;;;65.88;32.03;;;;;;;7.40;88.50;101125.97;5001522;28;20037;-75
2022/03/29 06:37:50;;;;;;;67.75;31.70;;;;;;;7.45;88.51;101123.00;4982186;28;20132;-76
2022/03/29 06:40:15;;;;;;;69.68;30.77;;;;;;;7.49;88.42;101126.13;4972680;28;20030;-76
2022/03/29 06:42:41;;;;;;;64.55;30.23;;;;;;;7.52;87.99;101126.69;5000913;28;20049;-76
2022/03/29 06:45:08;;;;;;;64.93;32.13;;;;;;;7.51;87.54;101129.41;4985167;28;20041;-75
2022/03/29 06:47:33;;;;;;;65.18;32.70;;;;;;;7.53;87.51;101127.50;4999666;28;20037;-76
2022/03/29 06:49:59;;;;;;;137.77;57.53;;;;;;;7.54;87.95;101127.38;5001087;28;20038;-76
2022/03/29 06:52:26;;;;;;;76.47;35.38;;;;;;;7.69;87.48;101122.72;4986492;28;20030;-76
2022/03/29 06:54:52;;;;;;;68.75;33.13;;;;;;;7.85;87.68;101117.06;4969024;28;20111;-76
2022/03/29 06:57:18;;;;;;;64.85;32.78;;;;;;;8.01;86.53;101120.94;4984760;28;20038;-76
2022/03/29 06:59:43;;;;;;;70.25;33.95;;;;;;;8.13;86.21;101119.88;4985594;28;20056;-76
2022/03/29 07:02:09;;;;;;;67.82;33.33;;;;;;;8.25;85.54;101118.81;4987428;28;20042;-76
2022/03/29 07:04:34;;;;;;;68.35;33.20;;;;;;;8.45;85.14;101116.28;4991175;28;20076;-75
2022/03/29 07:07:00;;;;;;;69.75;33.50;;;;;;;8.66;83.78;101108.41;4996664;28;20030;-76
2022/03/29 07:12:09;;;;;;;70.55;32.47;;;;;;;8.93;81.98;101120.66;4998003;28;20497;-76
2022/03/29 07:14:35;;;;;;;63.47;32.40;;;;;;;9.06;81.59;101108.25;4985387;28;20125;-75
2022/03/29 07:17:00;;;;;;;64.97;31.23;;;;;;;9.20;81.65;101101.84;4983940;28;20034;-76
2022/03/29 07:19:27;;;;;;;65.70;33.13;;;;;;;9.29;80.64;101102.78;5006491;28;20030;-75
2022/03/29 07:21:53;;;;;;;70.15;33.30;;;;;;;9.33;80.41;101104.13;4989635;28;20126;-75
2022/03/29 07:24:18;;;;;;;68.57;33.45;;;;;;;9.55;79.95;101106.38;5006697;28;20042;-75
2022/03/29 07:26:44;;;;;;;65.68;32.08;;;;;;;9.55;79.11;101101.19;4988786;28;20037;-76
2022/03/29 07:29:09;;;;;;;64.30;32.63;;;;;;;9.49;79.04;101099.19;4987644;28;20443;-75
2022/03/29 07:31:36;;;;;;;75.35;34.38;;;;;;;9.50;79.45;101098.19;4988408;28;20033;-76
2022/03/29 07:34:04;;;;;;;74.05;33.97;;;;;;;9.57;78.94;101100.22;5006299;28;20026;-76
2022/03/29 07:36:29;;;;;;;72.72;35.33;;;;;;;9.63;78.62;101092.72;4989492;28;20102;-76
2022/03/29 07:38:54;;;;;;;68.53;33.13;;;;;;;9.81;78.24;101099.72;4993298;28;20034;-77
2022/03/29 07:41:20;;;;;;;71.95;33.67;;;;;;;10.09;76.81;101092.75;4989895;28;20033;-75
2022/03/29 07:43:46;;;;;;;77.72;33.55;;;;;;;9.98;76.14;101095.53;4988978;28;20037;-76
2022/03/29 07:46:13;;;;;;;62.90;32.83;;;;;;;10.24;75.66;101099.06;5001616;28;20120;-76
2022/03/29 07:48:39;;;;;;;70.30;33.83;;;;;;;10.42;74.75;101099.13;4991193;28;20038;-76
2022/03/29 07:51:05;;;;;;;75.60;33.47;;;;;;;10.57;74.41;101096.00;4967699;28;20041;-75
2022/03/29 07:53:31;;;;;;;71.35;33.65;;;;;;;10.60;73.70;101096.50;4987074;28;20574;-76
2022/03/29 07:55:57;;;;;;;73.13;34.60;;;;;;;10.69;73.67;101095.63;4994422;28;20107;-75
2022/03/29 07:58:23;;;;;;;69.15;34.53;;;;;;;11.04;73.69;101091.38;5004348;28;20026;-75
2022/03/29 08:00:53;;;;;;;64.50;33.75;;;;;;;11.20;73.14;101088.03;4987060;28;20157;-76
2022/03/29 08:03:20;;;;;;;61.90;31.67;;;;;;;11.09;71.12;101086.53;4969908;28;20490;-76
2022/03/29 08:05:47;;;;;;;74.13;33.60;;;;;;;11.11;71.54;101081.16;5002052;28;20034;-77
2022/03/29 08:08:14;;;;;;;76.88;34.53;;;;;;;11.09;71.85;101076.16;5006862;28;20153;-76
2022/03/29 08:10:41;;;;;;;76.90;34.75;;;;;;;10.62;73.40;101073.84;5005324;28;20029;-76
2022/03/29 08:13:07;;;;;;;70.45;33.03;;;;;;;10.52;73.36;101076.50;4985224;28;20504;-77
2022/03/29 08:15:34;;;;;;;68.28;34.70;;;;;;;10.36;74.28;101078.97;4988344;28;20156;-76
2022/03/29 08:17:59;;;;;;;77.75;34.58;;;;;;;10.25;75.37;101082.56;4985444;28;20044;-76
2022/03/29 08:20:26;;;;;;;72.28;34.38;;;;;;;10.29;75.15;101072.72;4989252;28;20509;-76
2022/03/29 08:22:53;;;;;;;67.75;35.00;;;;;;;10.21;75.20;101070.88;4988793;28;20112;-75
2022/03/29 08:25:21;;;;;;;72.20;34.97;;;;;;;10.13;75.09;101083.72;4989634;28;20053;-77
2022/03/29 08:27:48;;;;;;;68.57;34.33;;;;;;;10.06;75.66;101069.75;5003577;28;20046;-77
2022/03/29 08:30:15;;;;;;;66.90;34.38;;;;;;;9.85;75.51;101072.56;5002644;28;20575;-75
2022/03/29 08:32:42;;;;;;;63.67;33.67;;;;;;;9.80;76.48;101075.59;4995968;28;20021;-75
2022/03/29 08:35:09;;;;;;;68.10;35.42;;;;;;;9.87;76.86;101073.22;4979511;28;20033;-77
2022/03/29 08:37:39;;;;;;;72.88;36.67;;;;;;;9.83;77.47;101082.25;4984604;28;20030;-75
2022/03/29 08:40:13;;;;;;;72.10;35.58;;;;;;;9.99;77.19;101077.28;4981408;28;20030;-77
2022/03/29 08:42:44;;;;;;;75.50;35.70;;;;;;;10.06;76.17;101075.72;4997939;28;20144;-75
2022/03/29 08:45:14;;;;;;;80.15;36.47;;;;;;;10.27;75.33;101065.09;5001673;28;20092;-76
2022/03/29 08:47:42;;;;;;;71.18;34.80;;;;;;;10.37;74.45;101062.44;4989848;28;20109;-76
2022/03/29 08:50:09;;;;;;;69.47;35.88;;;;;;;10.20;74.89;101058.84;5004735;28;20037;-76
2022/03/29 08:52:35;;;;;;;68.78;36.47;;;;;;;10.44;74.22;101065.28;4988334;28;20108;-76
2022/03/29 08:55:03;;;;;;;74.40;37.05;;;;;;;10.52;73.00;101060.97;4986748;28;20091;-76
2022/03/29 08:57:30;;;;;;;80.03;36.80;;;;;;;10.55;73.12;101064.22;4963193;28;20525;-76
2022/03/29 08:59:56;;;;;;;74.95;36.30;;;;;;;10.76;73.30;101063.94;4977996;28;20061;-76
2022/03/29 09:02:21;;;;;;;72.88;35.72;;;;;;;10.86;72.35;101060.25;4997605;28;20091;-76
2022/03/29 09:05:08;;;;;;;69.45;35.38;;;;;;;10.90;73.03;101056.38;4980241;28;20429;-76
2022/03/29 09:08:01;;;;;;;77.70;36.95;;;;;;;10.89;71.87;101051.38;4993814;28;20025;-76
2022/03/29 09:10:51;;;;;;;76.60;37.25;;;;;;;10.85;71.68;101055.22;5002898;28;20042;-75
2022/03/29 09:13:31;;;;;;;76.28;36.88;;;;;;;10.87;71.53;101048.94;4985326;28;20088;-77
2022/03/29 09:15:58;;;;;;;77.70;38.40;;;;;;;10.91;72.14;101047.66;4980352;28;20418;-76
2022/03/29 09:18:25;;;;;;;76.75;38.17;;;;;;;11.10;71.88;101046.63;4984910;28;20521;-77
2022/03/29 09:21:11;;;;;;;84.35;39.55;;;;;;;11.17;71.95;101041.66;4998483;28;20172;-76
2022/03/29 09:23:37;;;;;;;89.28;40.38;;;;;;;11.09;70.18;101045.03;4996485;28;20384;-76
2022/03/29 09:26:03;;;;;;;100.88;42.65;;;;;;;10.92;71.34;101045.84;4995140;28;20052;-76
2022/03/29 09:28:37;;;;;;;103.10;43.92;;;;;;;10.74;71.76;101052.84;4996672;28;20033;-75
2022/03/29 09:31:22;;;;;;;111.35;47.50;;;;;;;10.78;72.03;101051.63;4980577;28;20098;-76
2022/03/29 09:33:48;;;;;;;103.35;45.33;;;;;;;10.91;73.01;101054.63;4967058;28;20033;-75
2022/03/29 09:36:20;;;;;;;113.75;45.95;;;;;;;11.06;72.19;101054.88;4992965;28;20045;-76
2022/03/29 09:38:47;;;;;;;109.45;47.58;;;;;;;11.35;71.44;101051.16;4995188;28;20034;-76
2022/03/29 09:41:20;;;;;;;113.22;45.70;;;;;;;11.60;70.72;101044.28;4976778;28;20392;-75
2022/03/29 09:44:12;;;;;;;114.65;48.42;;;;;;;11.71;68.54;101045.78;4996969;28;20054;-76
2022/03/29 09:46:55;;;;;;;115.25;47.22;;;;;;;11.63;69.10;101038.78;4996245;28;20033;-75
2022/03/29 09:49:21;;;;;;;128.98;50.20;;;;;;;11.54;69.75;101042.31;4993000;28;20878;-75
2022/03/29 09:51:48;;;;;;;125.78;51.40;;;;;;;11.55;69.93;101038.75;4995619;28;20080;-76
2022/03/29 09:54:13;;;;;;;154.20;57.85;;;;;;;11.44;69.91;101032.03;4991717;28;20104;-76
2022/03/29 09:56:39;;;;;;;165.13;60.08;;;;;;;11.54;69.83;101024.94;4992120;28;20052;-76
2022/03/29 09:59:10;;;;;;;170.85;62.28;;;;;;;11.60;70.31;101021.72;4996957;28;20034;-76
2022/03/29 10:01:57;;;;;;;186.18;63.97;;;;;;;11.61;69.91;101020.75;4993013;28;20038;-75
2022/03/29 10:04:29;;;;;;;174.73;63.33;;;;;;;11.72;70.63;101024.84;4976251;28;20041;-76
2022/03/29 10:06:56;;;;;;;173.73;63.97;;;;;;;11.90;68.93;101011.75;4979309;28;20037;-76
2022/03/29 10:09:35;;;;;;;186.73;66.57;;;;;;;11.74;69.88;101012.50;4980222;28;20491;-77
2022/03/29 10:12:04;;;;;;;184.38;64.93;;;;;;;11.78;69.94;101013.00;4975277;28;20064;-76
2022/03/29 10:14:31;;;;;;;198.98;69.20;;;;;;;11.75;70.35;101001.13;4978878;28;20040;-76
2022/03/29 10:16:58;;;;;;;184.63;66.72;;;;;;;11.56;70.35;101010.00;4994034;28;20148;-76
2022/03/29 10:19:24;;;;;;;198.02;70.07;;;;;;;11.67;70.44;101011.50;4979741;28;20022;-76
2022/03/29 10:21:50;;;;;;;199.57;70.80;;;;;;;11.58;69.67;101007.25;4997323;28;20038;-76
2022/03/29 10:24:18;;;;;;;188.20;67.43;;;;;;;11.68;70.29;101000.16;4972637;28;20534;-76
2022/03/29 10:26:48;;;;;;;202.63;71.40;;;;;;;11.57;69.81;101003.84;4974735;28;20038;-76
2022/03/29 10:29:14;;;;;;;205.18;70.57;;;;;;;11.57;69.90;100997.84;4991970;28;20080;-77
2022/03/29 10:31:57;;;;;;;191.57;69.97;;;;;;;11.55;70.86;100999.78;4990022;28;20041;-76
2022/03/29 10:34:28;;;;;;;199.50;70.18;;;;;;;11.62;69.54;100995.56;4996453;28;20026;-77
2022/03/29 10:36:59;;;;;;;200.15;68.75;;;;;;;11.59;69.74;100988.91;4982582;28;21424;-77
2022/03/29 10:39:45;;;;;;;204.27;72.38;;;;;;;11.59;69.72;100988.91;4993416;28;20034;-76
2022/03/29 10:42:47;;;;;;;191.07;69.57;;;;;;;11.28;70.61;100981.69;4997381;28;20099;-75
2022/03/29 10:45:27;;;;;;;188.57;71.10;;;;;;;11.29;70.09;100987.69;4997415;28;20973;-76
2022/03/29 10:48:06;;;;;;;187.65;69.07;;;;;;;11.43;70.34;100979.31;5000737;28;20040;-76
2022/03/29 10:50:53;;;;;;;188.25;69.47;;;;;;;11.37;70.83;100979.91;5002991;28;20573;-76
2022/03/29 10:53:37;;;;;;;192.68;66.57;;;;;;;11.33;69.62;100978.59;4984695;28;20493;-76
2022/03/29 10:56:23;;;;;;;185.52;67.35;;;;;;;11.37;70.07;100964.34;4965498;28;20034;-76
2022/03/29 10:59:01;;;;;;;193.52;67.10;;;;;;;11.36;70.43;100967.09;4983767;28;20530;-76
2022/03/29 11:01:27;;;;;;;190.93;70.32;;;;;;;11.41;70.05;100955.25;4997600;28;20418;-76
2022/03/29 11:04:04;;;;;;;178.25;66.45;;;;;;;11.52;69.75;100964.56;4994274;28;20038;-77
2022/03/29 11:06:30;;;;;;;173.50;66.93;;;;;;;11.49;69.56;100959.69;4999542;28;20040;-76
2022/03/29 11:09:05;;;;;;;168.57;64.03;;;;;;;11.57;68.30;100962.31;4981767;28;20057;-76
2022/03/29 11:11:47;;;;;;;161.35;61.28;;;;;;;11.65;69.02;100956.31;4977257;28;21192;-76
2022/03/29 11:14:27;;;;;;;163.57;62.95;;;;;;;11.58;69.10;100953.53;4977348;28;20116;-76
2022/03/29 11:17:09;;;;;;;168.60;64.05;;;;;;;11.56;69.22;100949.47;5001586;28;20091;-76
2022/03/29 11:19:38;;;;;;;162.63;62.78;;;;;;;11.51;69.29;100952.56;5001583;28;20116;-75
2022/03/29 11:22:26;;;;;;;167.10;62.75;;;;;;;11.56;68.87;100946.88;5000250;28;20033;-75
2022/03/29 11:24:53;;;;;;;159.43;63.80;;;;;;;11.47;69.15;100943.44;5005171;28;20029;-75
2022/03/29 11:27:24;;;;;;;167.98;63.78;;;;;;;11.58;68.41;100943.13;4990867;28;20037;-75